createdAt,value
2022-09-25T00:02:17.452Z,9.40
2022-09-25T00:06:08.020Z,10.30
2022-09-25T00:09:32.560Z,10.20
2022-09-25T00:13:10.347Z,8.60
2022-09-25T00:16:44.316Z,9.50
2022-09-25T00:20:21.283Z,9.90
2022-09-25T00:24:00.614Z,10.20
2022-09-25T00:27:34.688Z,9.10
2022-09-25T00:31:12.801Z,9.60
2022-09-25T00:34:48.319Z,10.10
2022-09-25T00:38:25.181Z,11.60
2022-09-25T00:42:01.909Z,11.60
2022-09-25T00:45:39.429Z,10.90
2022-09-25T00:49:24.982Z,11.20
2022-09-25T00:52:55.453Z,9.70
2022-09-25T00:56:34.881Z,10.70
2022-09-25T01:00:10.072Z,10.80
2022-09-25T01:03:46.512Z,10.00
2022-09-25T01:07:20.307Z,10.80
2022-09-25T01:10:56.810Z,11.10
2022-09-25T01:14:34.928Z,10.70
2022-09-25T01:18:47.480Z,10.40
2022-09-25T01:22:15.544Z,10.10
2022-09-25T01:25:56.661Z,11.50
2022-09-25T01:29:12.403Z,11.20
2022-09-25T01:33:05.601Z,11.40
2022-09-25T01:36:29.462Z,11.30
2022-09-25T01:40:06.203Z,10.00
2022-09-25T01:43:58.165Z,10.60
2022-09-25T01:47:22.369Z,11.30
2022-09-25T01:50:57.682Z,11.70
2022-09-25T01:54:46.440Z,11.40
2022-09-25T02:01:59.293Z,12.10
2022-09-25T02:05:55.822Z,11.50
2022-09-25T02:09:39.463Z,10.10
2022-09-25T02:12:51.423Z,11.70
2022-09-25T02:16:30.962Z,11.40
2022-09-25T02:20:18.659Z,11.00
2022-09-25T02:23:55.244Z,11.60
2022-09-25T02:27:15.020Z,13.60
2022-09-25T02:30:54.708Z,12.20
2022-09-25T02:34:27.281Z,11.70
2022-09-25T02:38:04.501Z,12.00
2022-09-25T02:42:18.304Z,13.80
2022-09-25T02:46:00.788Z,13.20
2022-09-25T02:49:07.004Z,12.60
2022-09-25T02:52:58.323Z,11.80
2022-09-25T02:56:38.012Z,13.60
2022-09-25T02:59:56.166Z,12.50
2022-09-25T03:03:28.300Z,12.80
2022-09-25T03:07:04.263Z,12.90
2022-09-25T03:10:42.081Z,12.80
2022-09-25T03:14:17.324Z,13.50
2022-09-25T03:17:54.041Z,11.80
2022-09-25T03:21:31.945Z,13.50
2022-09-25T03:25:08.503Z,14.30
2022-09-25T03:28:44.719Z,12.20
2022-09-25T03:32:21.905Z,13.10
2022-09-25T03:36:25.360Z,12.40
2022-09-25T03:39:34.743Z,11.30
2022-09-25T03:46:48.283Z,11.90
2022-09-25T03:50:25.243Z,11.20
2022-09-25T03:54:03.225Z,11.00
2022-09-25T03:57:39.323Z,10.30
2022-09-25T04:01:16.141Z,11.80
2022-09-25T04:04:55.103Z,10.90
2022-09-25T04:08:29.223Z,12.00
2022-09-25T04:12:09.004Z,10.90
2022-09-25T04:15:43.020Z,12.50
2022-09-25T04:19:42.302Z,12.50
2022-09-25T04:23:19.061Z,12.70
2022-09-25T04:26:55.763Z,12.00
2022-09-25T04:30:33.982Z,10.40
2022-09-25T04:34:09.665Z,10.60
2022-09-25T04:37:46.242Z,10.60
2022-09-25T04:41:23.006Z,10.60
2022-09-25T04:45:00.124Z,11.00
2022-09-25T04:48:37.081Z,10.30
2022-09-25T04:52:15.611Z,9.20
2022-09-25T04:55:50.298Z,9.40
2022-09-25T04:59:27.012Z,9.50
2022-09-25T05:03:05.271Z,10.50
2022-09-25T05:06:40.711Z,10.90
2022-09-25T05:10:17.633Z,9.70
2022-09-25T05:13:54.236Z,10.10
2022-09-25T05:17:31.575Z,9.00
2022-09-25T05:21:07.688Z,10.40
2022-09-25T05:24:44.413Z,8.60
2022-09-25T05:28:23.697Z,8.40
2022-09-25T05:31:58.605Z,8.60
2022-09-25T05:35:34.978Z,7.70
2022-09-25T05:39:14.375Z,7.30
2022-09-25T05:42:49.257Z,7.30
2022-09-25T05:46:25.262Z,7.20
2022-09-25T05:50:59.310Z,6.40
2022-09-25T05:54:00.761Z,6.70
2022-09-25T05:57:38.703Z,7.60
2022-09-25T06:01:37.799Z,7.40
2022-09-25T06:05:14.984Z,6.50
2022-09-25T06:08:53.501Z,6.70
2022-09-25T06:12:31.495Z,6.50
2022-09-25T06:16:11.901Z,6.70
2022-09-25T06:19:41.462Z,6.30
2022-09-25T06:23:18.997Z,6.40
2022-09-25T06:26:55.054Z,6.30
2022-09-25T06:30:36.750Z,7.00
2022-09-25T06:34:09.749Z,7.20
2022-09-25T06:37:45.521Z,7.30
2022-09-25T06:41:23.385Z,8.50
2022-09-25T06:44:58.957Z,8.20
2022-09-25T06:48:58.558Z,8.20
2022-09-25T06:52:42.657Z,8.00
2022-09-25T06:56:11.900Z,8.20
2022-09-25T06:59:50.291Z,7.80
2022-09-25T07:03:43.547Z,7.30
2022-09-25T07:07:02.072Z,7.10
2022-09-25T07:10:41.645Z,7.30
2022-09-25T07:14:15.521Z,7.40
2022-09-25T07:17:52.494Z,7.10
2022-09-25T07:21:30.848Z,6.20
2022-09-25T07:25:07.722Z,7.40
2022-09-25T07:28:44.799Z,6.50
2022-09-25T07:32:20.947Z,7.10
2022-09-25T07:36:01.481Z,7.10
2022-09-25T07:39:33.325Z,7.40
2022-09-25T07:43:10.496Z,6.00
2022-09-25T07:46:47.755Z,5.80
2022-09-25T07:50:23.827Z,5.60
2022-09-25T07:54:01.344Z,6.10
2022-09-25T07:57:36.997Z,6.00
2022-09-25T08:01:42.597Z,8.10
2022-09-25T08:05:13.291Z,5.80
2022-09-25T08:08:49.841Z,6.20
2022-09-25T08:12:26.817Z,6.20
2022-09-25T08:16:13.866Z,6.20
2022-09-25T08:19:40.300Z,6.50
2022-09-25T08:23:17.157Z,5.50
2022-09-25T08:26:54.121Z,5.70
2022-09-25T08:30:33.591Z,5.50
2022-09-25T08:34:39.025Z,5.90
2022-09-25T08:37:46.584Z,5.70
2022-09-25T08:41:26.139Z,5.20
2022-09-25T08:45:22.201Z,5.60
2022-09-25T08:49:03.534Z,6.00
2022-09-25T08:52:17.366Z,5.80
2022-09-25T08:56:08.076Z,5.40
2022-09-25T08:59:36.578Z,6.20
2022-09-25T09:03:02.264Z,5.40
2022-09-25T09:06:41.393Z,6.90
2022-09-25T09:10:51.053Z,7.40
2022-09-25T09:14:02.991Z,7.40
2022-09-25T09:17:33.674Z,6.60
2022-09-25T09:21:22.688Z,8.10
2022-09-25T09:25:07.158Z,8.10
2022-09-25T09:29:02.805Z,10.10
2022-09-25T09:32:34.115Z,9.20
2022-09-25T09:36:37.403Z,8.30
2022-09-25T09:40:32.389Z,8.90
2022-09-25T09:43:57.571Z,8.80
2022-09-25T09:47:39.881Z,8.50
2022-09-25T09:51:18.474Z,9.80
2022-09-25T09:54:58.712Z,10.30
2022-09-25T09:58:20.803Z,10.80
2022-09-25T10:02:18.380Z,11.60
2022-09-25T10:05:48.615Z,12.40
2022-09-25T10:09:15.524Z,11.80
2022-09-25T10:12:52.177Z,12.70
2022-09-25T10:16:25.535Z,12.50
2022-09-25T10:20:03.777Z,12.00
2022-09-25T10:23:53.595Z,9.40
2022-09-25T10:27:38.482Z,10.40
2022-09-25T10:30:50.434Z,10.20
2022-09-25T10:34:29.734Z,10.30
2022-09-25T10:38:04.204Z,10.50
2022-09-25T10:41:44.615Z,9.60
2022-09-25T10:45:26.896Z,10.00
2022-09-25T10:49:32.477Z,9.00
2022-09-25T10:56:33.103Z,8.80
2022-09-25T10:59:59.618Z,9.00
2022-09-25T11:03:41.159Z,8.60
2022-09-25T11:07:18.557Z,9.00
2022-09-25T11:10:59.859Z,8.60
2022-09-25T11:14:32.947Z,9.10
2022-09-25T11:18:04.394Z,8.70
2022-09-25T11:22:00.344Z,9.10
2022-09-25T11:25:34.259Z,10.00
2022-09-25T11:29:07.155Z,10.70
2022-09-25T11:32:52.774Z,11.40
2022-09-25T11:36:17.736Z,9.40
2022-09-25T11:40:07.209Z,10.70
2022-09-25T11:43:32.334Z,9.50
2022-09-25T11:47:01.859Z,10.20
2022-09-25T11:51:06.182Z,12.70
2022-09-25T11:54:39.966Z,10.90
2022-09-25T11:57:55.015Z,11.30
2022-09-25T12:01:39.245Z,12.90
2022-09-25T12:05:19.139Z,10.40
2022-09-25T12:09:20.324Z,10.10
2022-09-25T12:13:07.337Z,13.90
2022-09-25T12:16:34.401Z,11.20
2022-09-25T12:20:24.095Z,10.30
2022-09-25T12:23:29.274Z,10.10
2022-09-25T12:27:07.787Z,10.00
2022-09-25T12:30:57.312Z,9.60
2022-09-25T12:34:45.256Z,10.60
2022-09-25T12:38:09.830Z,9.80
2022-09-25T12:41:35.698Z,9.60
2022-09-25T12:45:27.695Z,9.10
2022-09-25T12:49:05.495Z,9.40
2022-09-25T12:52:24.323Z,8.40
2022-09-25T12:56:09.855Z,8.60
2022-09-25T12:59:46.654Z,8.10
2022-09-25T13:03:17.397Z,8.30
2022-09-25T13:07:04.219Z,9.20
2022-09-25T13:10:50.055Z,9.20
2022-09-25T13:13:59.779Z,8.70
2022-09-25T13:17:55.236Z,8.60
2022-09-25T13:21:31.920Z,8.70
2022-09-25T13:25:16.479Z,9.10
2022-09-25T13:28:36.914Z,9.90
2022-09-25T13:32:17.576Z,9.70
2022-09-25T13:35:39.814Z,9.30
2022-09-25T13:39:40.283Z,9.90
2022-09-25T13:42:53.335Z,10.80
2022-09-25T13:46:33.935Z,11.00
2022-09-25T13:50:19.817Z,10.00
2022-09-25T13:54:09.638Z,9.90
2022-09-25T13:57:58.725Z,10.60
2022-09-25T14:01:00.367Z,9.90
2022-09-25T14:04:37.939Z,10.40
2022-09-25T14:08:15.983Z,9.50
2022-09-25T14:15:46.275Z,10.10
2022-09-25T14:19:05.598Z,11.20
2022-09-25T14:22:44.685Z,10.80
2022-09-25T14:26:23.136Z,11.30
2022-09-25T14:30:06.178Z,10.30
2022-09-25T14:33:56.055Z,11.00
2022-09-25T14:37:30.030Z,10.30
2022-09-25T14:41:21.737Z,10.20
2022-09-25T14:45:00.171Z,10.40
2022-09-25T14:48:00.817Z,8.70
2022-09-25T14:51:43.604Z,10.10
2022-09-25T14:55:20.658Z,10.00
2022-09-25T14:59:03.678Z,10.40
2022-09-25T15:02:34.552Z,9.90
2022-09-25T15:06:03.474Z,10.20
2022-09-25T15:09:48.633Z,9.40
2022-09-25T15:13:21.140Z,10.20
2022-09-25T15:17:12.656Z,10.70
2022-09-25T15:20:33.395Z,9.70
2022-09-25T15:24:17.676Z,10.40
2022-09-25T15:27:44.365Z,9.40
2022-09-25T15:31:21.489Z,11.40
2022-09-25T15:35:11.523Z,10.20
2022-09-25T15:38:37.568Z,9.60
2022-09-25T15:42:15.323Z,10.20
2022-09-25T15:46:10.510Z,11.00
2022-09-25T15:49:25.337Z,10.10
2022-09-25T15:53:03.341Z,9.90
2022-09-25T15:57:00.062Z,9.30
2022-09-25T16:00:40.517Z,9.60
2022-09-25T16:04:12.814Z,9.10
2022-09-25T16:07:48.602Z,9.20
2022-09-25T16:11:09.460Z,8.80
2022-09-25T16:14:42.520Z,9.70
2022-09-25T16:18:32.411Z,9.30
2022-09-25T16:21:58.876Z,9.30
2022-09-25T16:25:37.592Z,9.40
2022-09-25T16:29:12.941Z,8.90
2022-09-25T16:33:02.568Z,8.80
2022-09-25T16:36:26.174Z,8.50
2022-09-25T16:40:22.383Z,8.40
2022-09-25T16:44:13.636Z,8.50
2022-09-25T16:47:21.337Z,8.90
2022-09-25T16:50:51.514Z,9.30
2022-09-25T16:54:32.669Z,10.10
2022-09-25T16:58:10.373Z,10.00
2022-09-25T17:01:40.930Z,9.50
2022-09-25T17:05:20.190Z,9.00
2022-09-25T17:08:54.562Z,9.10
2022-09-25T17:12:31.960Z,10.00
2022-09-25T17:16:08.361Z,9.20
2022-09-25T17:19:44.893Z,9.00
2022-09-25T17:23:23.696Z,8.60
2022-09-25T17:26:58.817Z,9.30
2022-09-25T17:30:36.493Z,8.40
2022-09-25T17:34:24.969Z,8.70
2022-09-25T17:37:49.010Z,9.70
2022-09-25T17:41:36.738Z,12.60
2022-09-25T17:45:02.816Z,10.30
2022-09-25T17:48:39.660Z,10.40
2022-09-25T17:52:20.623Z,10.10
2022-09-25T17:55:54.091Z,9.60
2022-09-25T17:59:32.375Z,10.00
2022-09-25T18:03:06.546Z,9.60
2022-09-25T18:06:43.750Z,10.10
2022-09-25T18:10:21.373Z,9.80
2022-09-25T18:14:01.403Z,10.00
2022-09-25T18:17:34.210Z,9.80
2022-09-25T18:21:29.287Z,11.10
2022-09-25T18:24:48.713Z,10.00
2022-09-25T18:28:24.637Z,10.10
2022-09-25T18:32:01.138Z,10.80
2022-09-25T18:35:40.290Z,11.10
2022-09-25T18:39:19.610Z,10.10
2022-09-25T18:42:51.820Z,11.30
2022-09-25T18:46:27.976Z,10.40
2022-09-25T18:50:28.948Z,11.70
2022-09-25T18:54:04.593Z,10.50
2022-09-25T18:57:42.791Z,10.20
2022-09-25T19:01:19.485Z,10.50
2022-09-25T19:05:17.755Z,10.80
2022-09-25T19:08:32.616Z,10.30
2022-09-25T19:12:12.289Z,11.30
2022-09-25T19:15:45.507Z,10.90
2022-09-25T19:19:21.691Z,11.60
2022-09-25T19:23:01.037Z,10.90
2022-09-25T19:26:35.194Z,12.80
2022-09-25T19:33:50.029Z,14.70
2022-09-25T19:37:30.122Z,16.00
2022-09-25T19:44:40.043Z,17.50
2022-09-25T19:48:16.084Z,20.40
2022-09-25T19:51:53.038Z,20.20
2022-09-25T19:55:31.478Z,18.60
2022-09-25T19:59:13.855Z,19.20
2022-09-25T20:02:47.492Z,18.70
2022-09-25T20:06:20.510Z,19.00
2022-09-25T20:09:56.969Z,75.70
2022-09-25T20:13:34.256Z,41.00
2022-09-25T20:17:10.796Z,37.60
2022-09-25T20:20:47.608Z,38.30
2022-09-25T20:24:24.221Z,21.70
2022-09-25T20:28:01.570Z,20.60
2022-09-25T20:31:39.568Z,22.70
2022-09-25T20:35:15.104Z,19.80
2022-09-25T20:38:53.517Z,20.10
2022-09-25T20:42:29.410Z,20.10
2022-09-25T20:46:08.581Z,19.30
2022-09-25T20:49:41.833Z,20.30
2022-09-25T20:53:18.634Z,19.80
2022-09-25T20:56:55.535Z,14.20
2022-09-25T21:00:33.945Z,12.80
2022-09-25T21:04:10.130Z,13.50
2022-09-25T21:07:45.604Z,13.10
2022-09-25T21:11:23.894Z,12.00
2022-09-25T21:14:59.442Z,15.10
2022-09-25T21:18:36.515Z,13.80
2022-09-25T21:22:12.751Z,15.30
2022-09-25T21:25:49.276Z,14.40
2022-09-25T21:29:26.521Z,13.90
2022-09-25T21:33:03.385Z,15.60
2022-09-25T21:36:40.554Z,16.20
2022-09-25T21:40:16.811Z,16.20
2022-09-25T21:43:55.416Z,13.00
2022-09-25T21:47:31.282Z,12.60
2022-09-25T21:51:08.742Z,12.10
2022-09-25T21:54:43.756Z,12.70
2022-09-25T21:58:20.650Z,12.40
2022-09-25T22:01:58.774Z,12.60
2022-09-25T22:05:34.187Z,12.50
2022-09-25T22:09:16.928Z,14.00
2022-09-25T22:12:47.886Z,15.50
2022-09-25T22:16:31.121Z,14.70
2022-09-25T22:20:05.089Z,14.90
2022-09-25T22:23:38.505Z,16.50
2022-09-25T22:27:15.393Z,16.70
2022-09-25T22:30:52.304Z,14.30
2022-09-25T22:34:29.339Z,15.20
2022-09-25T22:38:05.796Z,13.70
2022-09-25T22:41:42.495Z,13.30
2022-09-25T22:45:19.036Z,12.80
2022-09-25T22:48:56.407Z,12.90
2022-09-25T22:52:35.163Z,14.10
2022-09-25T22:59:46.291Z,12.90
2022-09-25T23:03:24.768Z,13.40
2022-09-25T23:06:59.753Z,14.10
2022-09-25T23:11:02.603Z,13.10
2022-09-25T23:14:17.357Z,12.80
2022-09-25T23:17:50.210Z,12.00
2022-09-25T23:21:28.404Z,13.00
2022-09-25T23:25:04.095Z,13.30
2022-09-25T23:28:41.574Z,12.60
2022-09-25T23:32:19.500Z,13.10
2022-09-25T23:35:54.741Z,13.40
2022-09-25T23:39:30.920Z,12.60
2022-09-25T23:43:07.762Z,13.40
2022-09-25T23:46:45.108Z,12.90
2022-09-25T23:50:22.170Z,13.60
2022-09-25T23:54:00.441Z,13.30
2022-09-25T23:57:38.423Z,12.80
